Time;durP1;ratioP1;P1;durP2;ratioP2;P2;SDS_P1;SDS_P2;PMS_P1;PMS_P2;Temp;Humidity;BMP_temperature;BMP_pressure;BME280_temperature;BME280_humidity;BME280_pressure;Samples;Min_cycle;Max_cycle;Signal;HPM_P1;HPM_P2
2021/05/19 00:01:36;;;;;;;24.10;16.23;;;8.80;93.90;;;;;;5055222;28;20028;-37
2021/05/19 00:04:02;;;;;;;24.30;15.15;;;8.80;93.90;;;;;;5055258;28;20091;-36
2021/05/19 00:06:28;;;;;;;21.80;15.38;;;8.70;94.00;;;;;;5055060;28;20047;-37
2021/05/19 00:08:53;;;;;;;18.90;14.98;;;8.70;94.00;;;;;;5055251;28;20409;-36
2021/05/19 00:11:19;;;;;;;26.33;16.67;;;8.70;94.10;;;;;;5053991;28;20032;-36
2021/05/19 00:13:45;;;;;;;18.38;13.40;;;8.60;94.00;;;;;;5055297;28;20079;-36
2021/05/19 00:16:10;;;;;;;15.70;13.75;;;8.50;93.80;;;;;;5055308;28;20385;-36
2021/05/19 00:18:37;;;;;;;21.80;16.15;;;8.50;93.80;;;;;;5054924;28;20048;-36
2021/05/19 00:21:05;;;;;;;20.83;15.85;;;8.50;93.90;;;;;;5055030;28;20021;-36
2021/05/19 00:23:32;;;;;;;20.98;16.65;;;8.50;93.90;;;;;;5055030;28;20029;-35
2021/05/19 00:25:57;;;;;;;18.30;14.07;;;8.50;93.90;;;;;;5053800;28;20147;-36
2021/05/19 00:28:23;;;;;;;18.73;14.80;;;8.50;94.00;;;;;;5055688;28;20103;-35
2021/05/19 00:30:54;;;;;;;20.30;14.10;;;8.50;94.10;;;;;;5055460;28;20021;-36
2021/05/19 00:33:19;;;;;;;;;;;8.50;94.20;;;;;;5056258;28;20024;-35
2021/05/19 00:35:45;;;;;;;24.55;17.17;;;8.50;94.10;;;;;;5055254;28;19955;-37
2021/05/19 00:38:11;;;;;;;20.65;15.90;;;8.50;94.10;;;;;;5054697;28;20028;-36
2021/05/19 00:40:37;;;;;;;21.70;14.88;;;8.40;93.80;;;;;;5054780;28;20473;-36
2021/05/19 00:43:02;;;;;;;19.10;15.30;;;8.40;93.70;;;;;;5053330;28;20028;-36
2021/05/19 00:45:28;;;;;;;20.50;15.90;;;8.30;93.70;;;;;;5053198;28;20021;-35
2021/05/19 00:47:54;;;;;;;18.02;13.15;;;8.30;93.60;;;;;;5054604;28;20037;-35
2021/05/19 00:50:29;;;;;;;24.48;15.02;;;8.30;93.50;;;;;;5054149;28;20527;-36
2021/05/19 00:52:55;;;;;;;25.58;14.95;;;8.30;93.70;;;;;;5053179;28;20087;-36
2021/05/19 00:55:21;;;;;;;20.20;13.90;;;8.20;93.80;;;;;;5054803;28;20032;-36
2021/05/19 00:57:50;;;;;;;17.75;12.73;;;8.10;93.70;;;;;;5054168;28;20140;-36
2021/05/19 01:00:18;;;;;;;25.20;13.75;;;8.10;93.80;;;;;;5053831;28;20029;-36
2021/05/19 01:02:44;;;;;;;18.98;12.38;;;8.00;93.70;;;;;;5054134;28;20017;-36
2021/05/19 01:05:17;;;;;;;22.88;13.48;;;8.00;93.70;;;;;;5053924;28;20021;-36
2021/05/19 01:09:34;;;;;;;20.08;15.40;;;8.00;93.70;;;;;;5054188;28;20032;-36
2021/05/19 01:10:29;;;;;;;23.88;15.57;;;7.90;93.70;;;;;;5053914;28;20040;-36
2021/05/19 01:12:55;;;;;;;21.63;17.10;;;7.90;93.70;;;;;;5054009;28;20037;-36
2021/05/19 01:15:21;;;;;;;20.80;15.02;;;7.90;93.70;;;;;;5053700;28;20052;-36
2021/05/19 01:17:47;;;;;;;21.13;16.15;;;7.90;93.60;;;;;;5053703;28;20061;-36
2021/05/19 01:20:15;;;;;;;21.42;15.98;;;7.80;93.50;;;;;;5053861;28;20409;-35
2021/05/19 01:22:42;;;;;;;20.35;14.50;;;7.90;93.60;;;;;;5053560;28;20055;-35
2021/05/19 01:25:09;;;;;;;19.23;14.60;;;7.90;93.70;;;;;;5053897;28;20112;-35
2021/05/19 01:27:36;;;;;;;21.83;16.45;;;8.00;93.60;;;;;;5052058;28;20061;-36
2021/05/19 01:30:04;;;;;;;17.73;14.07;;;8.00;93.60;;;;;;5053886;28;20031;-37
2021/05/19 01:32:30;;;;;;;17.92;12.48;;;8.00;93.60;;;;;;5053888;28;20539;-36
2021/05/19 01:34:56;;;;;;;26.20;14.98;;;7.90;93.60;;;;;;5054116;28;20033;-35
2021/05/19 01:37:21;;;;;;;22.17;17.48;;;7.90;93.60;;;;;;5053513;28;20024;-35
2021/05/19 01:39:48;;;;;;;25.40;17.13;;;7.90;93.70;;;;;;5053464;28;20070;-36
2021/05/19 01:42:14;;;;;;;29.92;17.50;;;7.80;93.60;;;;;;5053415;28;20022;-35
2021/05/19 01:44:41;;;;;;;28.85;16.27;;;7.80;93.30;;;;;;5053438;28;20021;-36
2021/05/19 01:47:07;;;;;;;27.10;17.52;;;7.80;93.20;;;;;;5053300;28;20033;-36
2021/05/19 01:49:42;;;;;;;22.90;16.90;;;7.70;93.20;;;;;;5053620;28;20024;-36
2021/05/19 01:52:12;;;;;;;24.50;17.17;;;7.70;93.40;;;;;;5052060;28;20139;-36
2021/05/19 01:54:40;;;;;;;28.73;19.23;;;7.80;93.60;;;;;;5053586;28;20052;-36
2021/05/19 01:57:10;;;;;;;26.95;18.27;;;7.70;93.70;;;;;;5051850;28;20388;-36
2021/05/19 01:59:36;;;;;;;23.45;18.15;;;7.70;93.70;;;;;;5053331;28;20025;-36
2021/05/19 02:02:02;;;;;;;29.45;18.15;;;7.70;93.60;;;;;;5052769;28;20040;-36
2021/05/19 02:04:28;;;;;;;34.88;21.02;;;7.70;93.60;;;;;;5053506;28;20025;-36
2021/05/19 02:06:57;;;;;;;30.98;20.80;;;7.60;93.70;;;;;;5051995;28;20032;-36
2021/05/19 02:09:25;;;;;;;29.25;20.67;;;7.60;93.80;;;;;;5053383;28;20048;-43
2021/05/19 02:11:52;;;;;;;28.23;19.58;;;7.60;93.80;;;;;;5052134;28;20039;-36
2021/05/19 02:14:19;;;;;;;27.95;19.08;;;7.60;93.90;;;;;;5053090;28;20528;-36
2021/05/19 02:16:45;;;;;;;28.27;19.60;;;7.70;94.00;;;;;;5052998;28;20052;-36
2021/05/19 02:19:13;;;;;;;37.05;21.38;;;7.70;94.00;;;;;;5053033;28;20044;-36
2021/05/19 02:21:46;;;;;;;26.25;19.50;;;7.70;94.20;;;;;;5053247;28;20120;-36
2021/05/19 02:24:12;;;;;;;24.48;18.35;;;7.70;93.90;;;;;;5053319;28;20060;-35
2021/05/19 02:26:40;;;;;;;25.70;19.35;;;7.60;93.70;;;;;;5052955;28;20025;-36
2021/05/19 02:29:08;;;;;;;28.75;20.30;;;7.50;93.80;;;;;;5052791;28;20021;-37
2021/05/19 02:31:34;;;;;;;30.77;21.05;;;7.50;93.90;;;;;;5053140;28;20021;-36
2021/05/19 02:33:59;;;;;;;36.05;24.25;;;7.60;94.10;;;;;;5053112;28;20013;-36
2021/05/19 02:36:25;;;;;;;34.70;23.13;;;7.80;93.40;;;;;;5053000;28;20029;-35
2021/05/19 02:38:52;;;;;;;39.35;25.50;;;7.80;93.50;;;;;;5052769;28;20413;-35
2021/05/19 02:41:17;;;;;;;36.08;23.27;;;7.80;93.70;;;;;;5053052;28;20029;-35
2021/05/19 02:43:43;;;;;;;36.70;25.02;;;7.80;93.80;;;;;;5052801;28;20070;-36
2021/05/19 02:46:12;;;;;;;32.60;21.15;;;7.80;93.80;;;;;;5052791;28;20029;-35
2021/05/19 02:48:38;;;;;;;38.65;22.88;;;7.80;93.80;;;;;;5052988;28;20051;-36
2021/05/19 02:51:03;;;;;;;33.35;23.85;;;7.80;93.80;;;;;;5052549;28;20136;-36
2021/05/19 02:53:29;;;;;;;25.00;19.15;;;7.80;93.80;;;;;;5052941;28;20027;-35
2021/05/19 02:55:55;;;;;;;30.33;19.75;;;7.70;93.60;;;;;;5052621;28;20037;-35
2021/05/19 02:58:21;;;;;;;30.52;18.80;;;7.60;93.50;;;;;;5052823;28;20032;-37
2021/05/19 03:00:46;;;;;;;30.25;20.48;;;7.50;93.50;;;;;;5052856;28;20017;-35
2021/05/19 03:03:12;;;;;;;38.58;24.02;;;7.50;93.40;;;;;;5051337;28;20056;-35
2021/05/19 03:05:38;;;;;;;34.08;23.50;;;7.70;93.50;;;;;;5052829;28;20028;-37
2021/05/19 03:08:03;;;;;;;39.22;25.90;;;7.60;93.00;;;;;;5052801;28;20119;-35
2021/05/19 03:10:29;;;;;;;44.45;29.48;;;7.70;93.40;;;;;;5052528;28;20059;-35
2021/05/19 03:12:56;;;;;;;50.55;29.58;;;7.70;93.20;;;;;;5053070;28;20116;-36
2021/05/19 03:15:26;;;;;;;53.40;31.65;;;7.80;93.30;;;;;;5056288;28;20037;-36
2021/05/19 03:17:52;;;;;;;47.15;27.80;;;7.80;93.30;;;;;;5055316;28;20041;-36
2021/05/19 03:20:17;;;;;;;44.92;27.58;;;7.90;93.20;;;;;;5054944;28;20033;-36
2021/05/19 03:22:44;;;;;;;49.25;26.90;;;7.80;93.20;;;;;;5056410;28;20096;-36
2021/05/19 03:25:10;;;;;;;36.55;23.38;;;7.80;93.20;;;;;;5056346;28;20363;-35
2021/05/19 03:27:36;;;;;;;42.22;26.25;;;7.80;93.40;;;;;;5056164;28;20611;-36
2021/05/19 03:30:05;;;;;;;44.97;28.50;;;7.80;93.50;;;;;;5056179;28;20108;-36
2021/05/19 03:32:31;;;;;;;42.38;26.95;;;7.80;93.50;;;;;;5054601;28;20477;-35
2021/05/19 03:34:57;;;;;;;39.60;25.13;;;7.80;93.40;;;;;;5055931;28;20029;-35
2021/05/19 03:37:22;;;;;;;44.75;29.00;;;7.90;93.50;;;;;;5055745;28;20025;-36
2021/05/19 03:39:48;;;;;;;42.70;26.45;;;7.90;93.50;;;;;;5055650;28;20033;-36
2021/05/19 03:42:14;;;;;;;46.90;27.92;;;8.00;93.50;;;;;;5056299;28;20025;-36
2021/05/19 03:44:40;;;;;;;41.45;26.27;;;8.00;93.20;;;;;;5056004;28;20040;-36
2021/05/19 03:47:05;;;;;;;48.20;28.98;;;8.10;93.30;;;;;;5055870;28;20025;-36
2021/05/19 03:49:37;;;;;;;43.65;27.65;;;8.20;92.60;;;;;;5054540;28;20495;-36
2021/05/19 03:52:04;;;;;;;45.00;30.48;;;8.30;92.30;;;;;;5055561;28;20128;-36
2021/05/19 03:54:32;;;;;;;52.80;31.92;;;8.30;92.30;;;;;;5055576;28;20116;-36
2021/05/19 03:56:57;;;;;;;46.38;30.83;;;8.30;91.90;;;;;;5055729;28;20037;-36
2021/05/19 03:59:23;;;;;;;50.00;33.50;;;8.30;92.00;;;;;;5055491;28;20032;-36
2021/05/19 04:01:49;;;;;;;46.78;30.98;;;8.20;92.50;;;;;;5055896;28;20021;-36
2021/05/19 04:04:15;;;;;;;46.30;29.33;;;8.00;92.60;;;;;;5055491;28;20025;-35
2021/05/19 04:06:40;;;;;;;46.47;29.73;;;7.80;93.10;;;;;;5055546;28;20017;-36
2021/05/19 04:09:06;;;;;;;48.65;29.65;;;7.90;93.50;;;;;;5055265;28;20535;-36
2021/05/19 04:11:33;;;;;;;43.58;27.65;;;8.10;93.50;;;;;;5053990;28;20025;-36
2021/05/19 04:13:58;;;;;;;44.72;29.90;;;8.20;93.10;;;;;;5053903;28;20091;-35
2021/05/19 04:16:24;;;;;;;43.83;28.75;;;8.30;92.90;;;;;;5055126;28;20081;-36
2021/05/19 04:18:50;;;;;;;47.60;29.77;;;8.30;92.00;;;;;;5055041;28;20032;-36
2021/05/19 04:21:15;;;;;;;43.90;29.33;;;8.20;92.00;;;;;;5053774;28;20048;-41
2021/05/19 04:23:41;;;;;;;44.47;26.38;;;8.30;92.30;;;;;;5055034;28;20033;-36
2021/05/19 04:26:08;;;;;;;41.97;28.02;;;8.20;92.50;;;;;;5054046;28;20029;-36
2021/05/19 04:28:35;;;;;;;44.13;26.98;;;8.10;92.60;;;;;;5054851;28;20021;-36
2021/05/19 04:31:01;;;;;;;46.20;31.23;;;8.20;92.90;;;;;;5055068;28;20029;-36
2021/05/19 04:33:27;;;;;;;53.25;31.98;;;8.30;92.70;;;;;;5055037;28;20096;-36
2021/05/19 04:35:52;;;;;;;50.65;31.13;;;8.70;91.80;;;;;;5054714;28;20032;-36
2021/05/19 04:38:18;;;;;;;50.15;31.45;;;8.40;91.90;;;;;;5054772;28;20029;-36
2021/05/19 04:40:46;;;;;;;51.05;31.90;;;8.40;91.90;;;;;;5054752;28;20378;-36
2021/05/19 04:43:13;;;;;;;52.55;33.45;;;8.50;92.20;;;;;;5054877;28;20025;-36
2021/05/19 04:45:39;;;;;;;45.22;30.45;;;8.80;91.70;;;;;;5054557;28;20017;-36
2021/05/19 04:48:05;;;;;;;50.58;31.90;;;8.90;91.10;;;;;;5054702;28;20657;-36
2021/05/19 04:50:31;;;;;;;56.88;33.58;;;9.00;90.70;;;;;;5054317;28;20044;-36
2021/05/19 04:52:57;;;;;;;51.72;32.95;;;8.90;90.90;;;;;;5054660;28;20421;-35
2021/05/19 04:55:23;;;;;;;42.72;29.48;;;9.10;90.30;;;;;;5054474;28;20031;-36
2021/05/19 04:57:50;;;;;;;49.42;30.60;;;9.10;91.00;;;;;;5054212;28;20470;-36
2021/05/19 05:00:16;;;;;;;42.25;29.33;;;9.30;90.90;;;;;;5053006;28;20029;-36
2021/05/19 05:02:41;;;;;;;39.63;26.90;;;9.50;90.10;;;;;;5052893;28;20031;-36
2021/05/19 05:05:09;;;;;;;40.67;27.48;;;9.40;90.40;;;;;;5052909;28;20384;-36
2021/05/19 05:07:35;;;;;;;47.50;28.42;;;9.20;90.90;;;;;;5054628;28;20539;-36
2021/05/19 05:10:03;;;;;;;39.33;25.58;;;9.10;91.30;;;;;;5054084;28;20029;-36
2021/05/19 05:12:29;;;;;;;36.95;26.95;;;9.10;91.70;;;;;;5054059;28;20517;-36
2021/05/19 05:14:55;;;;;;;41.78;26.88;;;9.20;91.70;;;;;;5053866;28;20029;-36
2021/05/19 05:17:21;;;;;;;39.35;27.17;;;9.20;91.80;;;;;;5053747;28;20094;-36
2021/05/19 05:19:46;;;;;;;39.28;25.88;;;9.30;91.80;;;;;;5053933;28;20408;-36
2021/05/19 05:22:12;;;;;;;39.17;25.70;;;9.50;90.80;;;;;;5053599;28;20021;-36
2021/05/19 05:24:38;;;;;;;38.67;26.77;;;9.60;90.90;;;;;;5053752;28;20037;-36
2021/05/19 05:27:05;;;;;;;30.85;22.90;;;9.80;90.00;;;;;;5053560;28;20033;-36
2021/05/19 05:29:31;;;;;;;31.95;21.35;;;9.70;89.50;;;;;;5053862;28;20112;-36
2021/05/19 05:31:57;;;;;;;35.47;21.25;;;9.80;89.30;;;;;;5052441;28;20112;-36
2021/05/19 05:34:23;;;;;;;32.58;21.00;;;9.80;89.20;;;;;;5052318;28;20025;-36
2021/05/19 05:36:49;;;;;;;29.45;20.80;;;9.80;89.30;;;;;;5053489;28;20028;-36
2021/05/19 05:39:15;;;;;;;28.73;21.33;;;9.90;88.70;;;;;;5053522;28;20375;-36
2021/05/19 05:41:41;;;;;;;29.88;21.33;;;10.10;88.70;;;;;;5053870;28;20083;-37
2021/05/19 05:44:06;;;;;;;30.33;21.17;;;10.20;88.20;;;;;;5053925;28;20138;-37
2021/05/19 05:46:32;;;;;;;28.70;21.60;;;10.30;87.40;;;;;;5053286;28;20066;-36
2021/05/19 05:48:59;;;;;;;30.48;20.10;;;10.50;86.90;;;;;;5053248;28;20135;-36
2021/05/19 05:51:26;;;;;;;27.80;19.90;;;10.60;86.60;;;;;;5053174;28;20065;-36
2021/05/19 05:53:52;;;;;;;27.08;20.45;;;10.30;86.80;;;;;;5052125;28;20361;-36
2021/05/19 05:56:18;;;;;;;26.02;18.95;;;10.30;87.50;;;;;;5053275;28;20465;-36
2021/05/19 05:58:44;;;;;;;28.05;19.58;;;10.20;87.90;;;;;;5053764;28;20050;-37
2021/05/19 06:01:10;;;;;;;27.75;19.08;;;10.30;87.50;;;;;;5054182;28;20017;-36
2021/05/19 06:03:36;;;;;;;29.02;20.08;;;10.40;87.40;;;;;;5053087;28;20017;-38
2021/05/19 06:06:02;;;;;;;26.65;19.85;;;10.40;87.10;;;;;;5053476;28;20028;-37
2021/05/19 06:08:28;;;;;;;25.75;18.98;;;10.60;87.00;;;;;;5054539;28;20025;-36
2021/05/19 06:10:54;;;;;;;29.02;19.98;;;10.70;86.80;;;;;;5052881;28;20110;-36
2021/05/19 06:13:21;;;;;;;24.52;18.27;;;10.90;85.70;;;;;;5052669;28;20029;-37
2021/05/19 06:15:47;;;;;;;24.50;19.45;;;10.80;85.50;;;;;;5052925;28;20025;-37
2021/05/19 06:18:13;;;;;;;32.28;21.90;;;11.10;85.30;;;;;;5051643;28;20453;-36
2021/05/19 06:20:38;;;;;;;24.00;17.10;;;11.40;85.40;;;;;;5052992;28;20025;-37
2021/05/19 06:23:04;;;;;;;18.83;15.15;;;11.40;83.80;;;;;;5052889;28;20104;-37
2021/05/19 06:25:30;;;;;;;23.20;16.23;;;11.40;83.60;;;;;;5053025;28;20489;-36
2021/05/19 06:27:56;;;;;;;28.15;16.98;;;11.20;84.10;;;;;;5052744;28;20025;-36
2021/05/19 06:30:22;;;;;;;23.80;16.35;;;11.10;84.60;;;;;;5052801;28;20025;-36
2021/05/19 06:32:47;;;;;;;19.42;15.18;;;11.20;84.80;;;;;;5052792;28;20036;-36
2021/05/19 06:35:13;;;;;;;25.23;15.15;;;11.00;84.90;;;;;;5053067;28;20029;-36
2021/05/19 06:37:39;;;;;;;20.85;15.13;;;11.40;83.80;;;;;;5052631;28;20021;-36
2021/05/19 06:40:05;;;;;;;24.25;14.45;;;11.40;83.10;;;;;;5052617;28;20021;-36
2021/05/19 06:42:31;;;;;;;24.73;14.57;;;11.60;82.80;;;;;;5052857;28;20022;-36
2021/05/19 06:44:57;;;;;;;17.55;12.77;;;11.70;83.00;;;;;;5052403;28;20017;-37
2021/05/19 06:47:22;;;;;;;21.15;14.02;;;11.80;82.00;;;;;;5052020;28;20029;-36
2021/05/19 06:49:48;;;;;;;21.20;13.07;;;11.70;82.80;;;;;;5056273;28;20031;-36
2021/05/19 06:52:15;;;;;;;18.35;12.10;;;11.80;82.00;;;;;;5056236;28;20083;-36
2021/05/19 06:54:41;;;;;;;20.40;12.98;;;11.80;81.80;;;;;;5056666;28;20029;-36
2021/05/19 06:57:07;;;;;;;20.73;11.70;;;12.30;80.90;;;;;;5054637;28;20028;-36
2021/05/19 06:59:32;;;;;;;19.73;11.60;;;12.60;80.20;;;;;;5056190;28;20470;-36
2021/05/19 07:01:58;;;;;;;15.27;11.80;;;12.80;77.90;;;;;;5056063;28;20029;-37
2021/05/19 07:04:24;;;;;;;17.42;12.30;;;12.70;79.00;;;;;;5055959;28;20425;-36
2021/05/19 07:06:50;;;;;;;15.38;11.55;;;12.90;78.30;;;;;;5055733;28;20025;-36
2021/05/19 07:09:16;;;;;;;18.95;10.82;;;12.60;77.50;;;;;;5054342;28;20025;-36
2021/05/19 07:11:42;;;;;;;20.48;11.55;;;12.60;78.20;;;;;;5056550;28;20074;-38
2021/05/19 07:14:14;;;;;;;23.10;11.80;;;12.40;78.50;;;;;;5056170;28;20044;-36
2021/05/19 07:16:47;;;;;;;25.98;12.38;;;12.80;77.10;;;;;;5056833;28;20520;-37
2021/05/19 07:19:14;;;;;;;22.10;12.20;;;12.50;76.50;;;;;;5056846;28;20385;-38
2021/05/19 07:21:39;;;;;;;16.10;10.88;;;12.50;77.60;;;;;;5054899;28;20021;-37
2021/05/19 07:24:06;;;;;;;18.83;11.60;;;12.80;75.10;;;;;;5056043;28;20025;-38
2021/05/19 07:26:32;;;;;;;18.17;9.80;;;12.50;75.90;;;;;;5055940;28;20029;-37
2021/05/19 07:28:58;;;;;;;18.65;11.10;;;12.30;75.90;;;;;;5056549;28;20476;-38
2021/05/19 07:31:24;;;;;;;21.63;10.85;;;12.30;76.70;;;;;;5056496;28;20108;-36
2021/05/19 07:33:49;;;;;;;16.90;9.05;;;12.20;77.60;;;;;;5056151;28;20112;-36
2021/05/19 07:36:15;;;;;;;15.45;9.40;;;13.20;74.20;;;;;;5055475;28;20025;-36
2021/05/19 07:38:41;;;;;;;13.15;8.52;;;13.60;72.80;;;;;;5055356;28;20029;-36
2021/05/19 07:41:06;;;;;;;15.40;8.57;;;13.80;72.30;;;;;;5055676;28;20368;-36
2021/05/19 07:43:32;;;;;;;14.93;8.00;;;14.30;70.40;;;;;;5055680;28;20075;-36
2021/05/19 07:45:58;;;;;;;20.83;9.25;;;14.00;70.80;;;;;;5055878;28;20040;-36
2021/05/19 07:48:23;;;;;;;17.83;10.05;;;14.10;69.20;;;;;;5055833;28;20403;-36
2021/05/19 07:50:49;;;;;;;20.05;10.25;;;13.50;71.10;;;;;;5055036;28;20053;-36
2021/05/19 07:53:15;;;;;;;20.30;10.45;;;13.50;70.90;;;;;;5055309;28;20032;-36
2021/05/19 07:58:16;;;;;;;14.38;8.98;;;14.10;68.40;;;;;;5054642;28;20032;-35
2021/05/19 08:03:14;;;;;;;18.05;12.10;;;13.80;71.50;;;;;;5055146;28;20028;-36
2021/05/19 08:05:40;;;;;;;16.20;10.48;;;14.10;70.20;;;;;;5054966;28;20029;-35
2021/05/19 08:08:06;;;;;;;18.67;11.60;;;14.50;68.90;;;;;;5053085;28;20385;-35
2021/05/19 08:10:32;;;;;;;14.27;9.65;;;14.70;66.60;;;;;;5053562;28;20029;-36
2021/05/19 08:12:58;;;;;;;18.95;11.32;;;15.00;66.40;;;;;;5053865;28;20032;-36
2021/05/19 08:15:24;;;;;;;16.58;10.93;;;15.10;65.10;;;;;;5054789;28;20025;-36
2021/05/19 08:17:49;;;;;;;18.27;11.05;;;14.80;65.60;;;;;;5055242;28;20380;-37
2021/05/19 08:20:20;;;;;;;17.63;10.63;;;14.60;65.00;;;;;;5055538;28;20033;-37
2021/05/19 08:22:46;;;;;;;17.80;10.38;;;14.90;64.60;;;;;;5054681;28;20535;-36
2021/05/19 08:25:12;;;;;;;18.27;10.02;;;15.10;64.60;;;;;;5054415;28;20048;-37
2021/05/19 08:27:38;;;;;;;12.30;9.45;;;14.90;64.50;;;;;;5054646;28;20526;-35
2021/05/19 08:30:04;;;;;;;14.00;10.20;;;14.90;63.50;;;;;;5054453;28;20052;-35
2021/05/19 08:32:29;;;;;;;15.07;10.35;;;14.60;64.80;;;;;;5054430;28;20120;-35
2021/05/19 08:34:55;;;;;;;12.23;9.52;;;13.90;67.80;;;;;;5054223;28;20092;-35
2021/05/19 08:37:21;;;;;;;23.58;15.27;;;13.90;69.50;;;;;;5054340;28;20358;-35
2021/05/19 08:39:48;;;;;;;14.95;9.70;;;14.40;66.90;;;;;;5054305;28;20040;-35
2021/05/19 08:42:14;;;;;;;14.07;9.80;;;14.00;66.40;;;;;;5054032;28;20445;-35
2021/05/19 08:44:41;;;;;;;24.17;11.23;;;14.10;66.00;;;;;;5053781;28;20075;-35
2021/05/19 08:47:07;;;;;;;13.57;10.02;;;13.70;68.70;;;;;;5053880;28;20021;-35
2021/05/19 08:49:33;;;;;;;19.27;10.20;;;13.90;67.60;;;;;;5053017;28;20075;-35
2021/05/19 08:51:58;;;;;;;11.35;8.18;;;14.20;66.40;;;;;;5052547;28;20055;-35
2021/05/19 08:54:24;;;;;;;19.52;7.85;;;14.10;66.30;;;;;;5036180;28;20031;-36
2021/05/19 08:56:51;;;;;;;11.77;8.63;;;13.70;67.00;;;;;;5054751;28;20373;-35
2021/05/19 08:59:19;;;;;;;14.30;7.45;;;14.10;65.30;;;;;;5053912;28;20081;-35
2021/05/19 09:01:47;;;;;;;12.60;7.18;;;14.10;65.60;;;;;;5053962;28;20028;-35
2021/05/19 09:04:22;;;;;;;11.02;6.93;;;14.80;64.00;;;;;;5053031;28;20393;-36
2021/05/19 09:06:59;;;;;;;8.90;6.40;;;15.20;62.00;;;;;;5054351;28;20100;-36
2021/05/19 09:09:29;;;;;;;14.10;5.85;;;15.50;60.90;;;;;;5054155;28;20040;-36
2021/05/19 09:11:58;;;;;;;11.10;7.45;;;16.00;59.10;;;;;;5054288;28;20195;-36
2021/05/19 09:14:25;;;;;;;10.45;6.70;;;15.90;58.70;;;;;;5054009;28;20354;-36
2021/05/19 09:16:51;;;;;;;8.93;5.22;;;15.70;58.70;;;;;;5053904;28;20021;-36
2021/05/19 09:19:33;;;;;;;9.75;5.68;;;15.40;60.00;;;;;;5054397;28;20021;-35
2021/05/19 09:22:00;;;;;;;8.75;5.57;;;14.80;61.80;;;;;;5054115;28;20021;-36
2021/05/19 09:24:34;;;;;;;10.68;5.38;;;14.60;63.70;;;;;;5054052;28;20031;-36
2021/05/19 09:27:02;;;;;;;11.18;5.65;;;14.60;63.70;;;;;;5053704;28;20036;-36
2021/05/19 09:29:35;;;;;;;10.73;4.78;;;14.30;64.10;;;;;;5053770;28;20094;-35
2021/05/19 09:32:07;;;;;;;13.70;6.75;;;13.90;65.10;;;;;;5053878;28;20072;-36
2021/05/19 09:34:38;;;;;;;13.73;5.85;;;14.00;65.30;;;;;;5053960;28;20108;-35
2021/05/19 09:37:18;;;;;;;12.82;5.00;;;14.10;64.70;;;;;;5053709;28;20029;-36
2021/05/19 09:39:47;;;;;;;8.30;4.82;;;14.10;64.20;;;;;;5053710;28;20537;-36
2021/05/19 09:42:13;;;;;;;14.88;5.38;;;14.00;65.00;;;;;;5053679;28;20024;-36
2021/05/19 09:44:39;;;;;;;12.75;5.20;;;14.10;64.30;;;;;;5053617;28;20460;-36
2021/05/19 09:47:04;;;;;;;11.02;4.88;;;14.00;65.40;;;;;;5053439;28;20032;-36
2021/05/19 09:49:30;;;;;;;12.40;5.85;;;14.00;66.60;;;;;;5053612;28;20029;-36
2021/05/19 09:51:59;;;;;;;7.78;3.08;;;14.00;67.70;;;;;;5052847;28;20068;-36
2021/05/19 09:54:34;;;;;;;10.25;3.95;;;13.90;67.60;;;;;;5053434;28;20087;-35
2021/05/19 09:57:07;;;;;;;5.22;2.72;;;13.70;68.30;;;;;;5052922;28;20033;-36
2021/05/19 09:59:34;;;;;;;9.27;2.80;;;13.60;69.60;;;;;;5053171;28;20473;-36
2021/05/19 10:02:01;;;;;;;7.05;3.47;;;13.20;72.50;;;;;;5052739;28;20469;-35
2021/05/19 10:04:31;;;;;;;9.30;4.03;;;13.10;72.30;;;;;;5052943;28;20381;-35
2021/05/19 10:06:58;;;;;;;;;;;13.00;72.20;;;;;;5053198;28;20028;-37
2021/05/19 10:09:27;;;;;;;8.82;3.55;;;13.30;71.30;;;;;;5052514;28;20004;-36
2021/05/19 10:11:54;;;;;;;8.95;4.07;;;13.50;70.70;;;;;;5051907;28;20025;-36
2021/05/19 10:14:24;;;;;;;12.10;3.80;;;13.80;70.90;;;;;;5052827;28;20029;-35
2021/05/19 10:17:07;;;;;;;7.15;3.83;;;15.10;65.70;;;;;;5052593;28;20029;-34
2021/05/19 10:19:50;;;;;;;8.38;4.05;;;15.50;63.60;;;;;;5052637;28;20021;-35
2021/05/19 10:22:18;;;;;;;8.15;3.38;;;15.80;60.40;;;;;;5052649;28;20067;-37
2021/05/19 10:24:49;;;;;;;10.20;3.58;;;14.90;64.00;;;;;;5053186;28;20025;-35
2021/05/19 10:27:18;;;;;;;6.25;2.83;;;14.90;63.00;;;;;;5051185;28;20033;-36
2021/05/19 10:29:50;;;;;;;6.13;2.88;;;15.10;62.30;;;;;;5051318;28;20499;-35
2021/05/19 10:32:22;;;;;;;3.70;2.33;;;14.70;64.10;;;;;;5052641;28;20029;-39
2021/05/19 10:34:52;;;;;;;9.60;2.95;;;14.30;64.40;;;;;;5051002;28;20055;-36
2021/05/19 10:37:27;;;;;;;7.38;4.20;;;14.70;63.90;;;;;;5052430;28;20115;-35
2021/05/19 10:40:12;;;;;;;9.35;4.05;;;14.90;64.00;;;;;;5052074;28;20025;-35
2021/05/19 10:42:42;;;;;;;9.77;3.92;;;15.00;63.80;;;;;;5052310;28;20040;-42
2021/05/19 10:45:15;;;;;;;17.40;4.57;;;14.90;64.20;;;;;;5052715;28;20538;-36
2021/05/19 10:47:45;;;;;;;6.78;3.67;;;15.60;60.80;;;;;;5052407;28;20366;-35
2021/05/19 10:50:31;;;;;;;5.15;3.20;;;15.40;62.30;;;;;;5052364;28;20049;-37
2021/05/19 10:58:54;;;;;;;9.35;2.80;;;17.30;55.80;;;;;;5052470;28;20032;-35
2021/05/19 11:01:41;;;;;;;8.25;3.15;;;18.10;52.20;;;;;;5052201;28;20151;-36
2021/05/19 11:04:16;;;;;;;9.50;3.10;;;17.20;54.90;;;;;;5051035;28;20465;-36
2021/05/19 11:06:57;;;;;;;6.90;3.03;;;17.00;55.50;;;;;;5052068;28;20420;-36
2021/05/19 11:09:28;;;;;;;7.50;2.88;;;16.40;56.40;;;;;;5051770;28;20056;-36
2021/05/19 11:12:26;;;;;;;13.05;3.10;;;16.50;57.90;;;;;;5052849;28;20017;-35
2021/05/19 11:15:05;;;;;;;8.70;2.92;;;16.80;54.40;;;;;;5052668;28;20056;-37
2021/05/19 11:20:08;;;;;;;6.97;2.55;;;16.20;57.80;;;;;;5051948;28;20021;-37
2021/05/19 11:22:33;;;;;;;9.38;4.22;;;17.60;52.10;;;;;;5051937;28;20025;-37
2021/05/19 11:25:03;;;;;;;5.50;2.28;;;17.40;52.60;;;;;;5052241;28;20023;-36
2021/05/19 11:27:34;;;;;;;8.17;3.80;;;16.20;56.00;;;;;;5051863;28;20107;-36
2021/05/19 11:30:04;;;;;;;7.57;2.17;;;16.00;56.50;;;;;;5052158;28;20087;-36
2021/05/19 11:32:30;;;;;;;12.77;3.45;;;15.50;58.90;;;;;;5050973;28;20053;-36
2021/05/19 11:35:17;;;;;;;14.30;3.08;;;15.30;59.60;;;;;;5053396;28;20040;-37
2021/05/19 11:38:04;;;;;;;6.72;2.33;;;15.10;60.00;;;;;;5055214;28;20057;-36
2021/05/19 11:40:48;;;;;;;13.07;2.80;;;15.30;58.50;;;;;;5055232;28;20112;-36
2021/05/19 11:43:16;;;;;;;7.65;2.75;;;15.20;58.80;;;;;;5055693;28;20138;-36
2021/05/19 11:45:44;;;;;;;8.13;2.85;;;15.20;59.40;;;;;;5056240;28;20025;-38
2021/05/19 11:48:28;;;;;;;14.43;4.60;;;15.40;59.50;;;;;;5055579;28;20111;-37
2021/05/19 11:50:55;;;;;;;11.77;3.08;;;15.80;58.00;;;;;;5055364;28;20123;-37
2021/05/19 11:53:21;;;;;;;5.70;2.58;;;16.30;56.60;;;;;;5055645;28;20025;-37
2021/05/19 11:55:50;;;;;;;6.70;2.53;;;18.00;52.60;;;;;;5055485;28;20028;-37
2021/05/19 11:58:22;;;;;;;6.18;2.50;;;19.30;49.10;;;;;;5055418;28;20029;-37
2021/05/19 12:01:03;;;;;;;8.90;2.63;;;17.20;50.50;;;;;;5055323;28;20049;-37
2021/05/19 12:03:31;;;;;;;10.98;1.95;;;16.70;54.50;;;;;;5055311;28;20035;-37
2021/05/19 12:06:03;;;;;;;5.65;2.42;;;17.50;51.50;;;;;;5037444;28;20028;-37
2021/05/19 12:08:35;;;;;;;7.22;2.35;;;17.60;51.90;;;;;;5055060;28;20029;-37
2021/05/19 12:11:12;;;;;;;7.25;3.08;;;19.00;47.70;;;;;;5054827;28;20021;-37
2021/05/19 12:13:43;;;;;;;4.22;2.40;;;19.40;47.00;;;;;;5055331;28;20021;-37
2021/05/19 12:16:16;;;;;;;5.75;2.08;;;20.50;44.00;;;;;;5054765;28;20058;-37
2021/05/19 12:18:57;;;;;;;6.53;2.22;;;20.10;42.70;;;;;;5054930;28;20108;-37
2021/05/19 12:21:23;;;;;;;8.60;2.33;;;20.10;43.10;;;;;;5055480;28;20420;-37
2021/05/19 12:23:49;;;;;;;5.63;3.03;;;20.60;42.50;;;;;;5054997;28;20021;-37
2021/05/19 12:26:15;;;;;;;4.68;1.63;;;21.30;41.30;;;;;;5055093;28;20029;-36
2021/05/19 12:28:40;;;;;;;4.55;2.03;;;19.80;43.30;;;;;;5054754;28;20032;-37
2021/05/19 12:31:06;;;;;;;6.60;2.47;;;17.80;49.10;;;;;;5055963;28;20024;-37
2021/05/19 12:33:44;;;;;;;7.65;2.58;;;17.10;51.40;;;;;;5055200;28;20028;-37
2021/05/19 12:36:32;;;;;;;4.22;1.80;;;16.80;51.50;;;;;;5055921;28;20036;-38
2021/05/19 12:39:03;;;;;;;5.22;2.20;;;18.60;45.70;;;;;;5055598;28;20036;-36
2021/05/19 12:41:44;;;;;;;5.85;2.53;;;18.60;45.70;;;;;;5053571;28;20025;-37
2021/05/19 12:44:15;;;;;;;7.78;2.33;;;17.60;47.60;;;;;;5055479;28;20032;-37
2021/05/19 12:47:06;;;;;;;5.32;2.33;;;17.20;50.00;;;;;;5054078;28;20088;-37
2021/05/19 12:49:33;;;;;;;8.57;2.78;;;16.80;51.70;;;;;;5054492;28;20377;-38
2021/05/19 12:52:01;;;;;;;9.93;2.58;;;17.80;49.60;;;;;;5054286;28;20045;-37
2021/05/19 12:54:33;;;;;;;6.57;2.17;;;18.30;47.30;;;;;;5054493;28;20103;-38
2021/05/19 12:57:04;;;;;;;8.55;2.47;;;16.70;51.80;;;;;;5054298;28;20121;-37